Time;durP1;ratioP1;P1;durP2;ratioP2;P2;SDS_P1;SDS_P2;PMS_P1;PMS_P2;Temp;Humidity;BMP_temperature;BMP_pressure;BME280_temperature;BME280_humidity;BME280_pressure;Samples;Min_cycle;Max_cycle;Signal;HPM_P1;HPM_P2
2022/04/16 00:01:49;;;;;;;4.43;3.65;;;;;;;21.41;36.76;103257.63;5057379;28;20047;-69
2022/04/16 00:04:15;;;;;;;5.18;3.70;;;;;;;21.41;36.72;103265.59;5034871;28;20114;-69
2022/04/16 00:06:40;;;;;;;5.18;4.28;;;;;;;21.40;36.74;103269.22;5067796;28;20714;-69
2022/04/16 00:09:06;;;;;;;5.18;3.30;;;;;;;21.35;36.74;103265.25;5025613;28;20051;-68
2022/04/16 00:11:32;;;;;;;5.32;4.00;;;;;;;21.39;36.74;103275.50;5067574;28;20032;-69
2022/04/16 00:13:58;;;;;;;5.60;3.90;;;;;;;21.33;36.61;103268.03;5037985;28;20263;-68
2022/04/16 00:16:24;;;;;;;6.95;3.90;;;;;;;21.32;36.77;103273.47;5066397;28;20040;-68
2022/04/16 00:18:50;;;;;;;4.50;3.60;;;;;;;21.34;36.92;103269.72;5037731;28;20048;-69
2022/04/16 00:21:15;;;;;;;5.35;3.78;;;;;;;21.36;36.62;103272.25;5054899;28;20036;-69
2022/04/16 00:23:41;;;;;;;5.82;3.83;;;;;;;21.29;36.81;103263.16;5054340;28;20525;-69
2022/04/16 00:26:07;;;;;;;5.93;4.10;;;;;;;21.33;36.79;103269.84;5041738;28;20037;-68
2022/04/16 00:28:35;;;;;;;4.85;3.60;;;;;;;21.35;36.82;103266.09;5064218;28;20108;-68
2022/04/16 00:31:01;;;;;;;5.25;3.60;;;;;;;21.30;36.79;103257.72;5035909;28;20059;-68
2022/04/16 00:33:26;;;;;;;4.53;3.65;;;;;;;21.25;36.85;103254.63;5052710;28;20036;-68
2022/04/16 00:35:53;;;;;;;5.05;3.58;;;;;;;21.31;36.79;103263.84;5043182;28;20509;-68
2022/04/16 00:38:19;;;;;;;6.10;3.60;;;;;;;21.27;36.73;103260.63;5070461;28;20059;-68
2022/04/16 00:40:44;;;;;;;5.25;3.70;;;;;;;21.25;36.80;103257.28;5034231;28;20038;-69
2022/04/16 00:43:21;;;;;;;4.68;3.58;;;;;;;21.30;36.66;103257.72;5070600;28;20044;-68
2022/04/16 00:45:47;;;;;;;5.97;3.53;;;;;;;21.25;36.85;103251.13;5043436;28;20152;-69
2022/04/16 00:48:13;;;;;;;4.78;3.40;;;;;;;21.29;36.64;103261.34;5049926;28;20044;-68
2022/04/16 00:50:39;;;;;;;4.30;3.63;;;;;;;21.29;36.58;103260.50;5054567;28;20092;-68
2022/04/16 00:53:05;;;;;;;5.47;3.83;;;;;;;21.23;37.09;103263.66;5058638;28;20697;-69
2022/04/16 00:55:37;;;;;;;5.40;3.75;;;;;;;21.25;36.84;103267.88;5072560;28;20027;-68
2022/04/16 00:58:02;;;;;;;5.05;3.70;;;;;;;21.25;36.80;103273.16;5038255;28;20036;-68
2022/04/16 01:00:28;;;;;;;5.78;3.50;;;;;;;21.17;36.77;103261.50;5070046;28;20059;-69
2022/04/16 01:02:56;;;;;;;4.55;3.00;;;;;;;21.26;36.88;103276.66;5045252;28;20769;-69
2022/04/16 01:05:22;;;;;;;4.68;3.42;;;;;;;21.26;36.66;103279.31;5066840;28;20040;-69
2022/04/16 01:07:57;;;;;;;3.97;3.30;;;;;;;21.24;36.75;103279.44;5049447;28;20478;-68
2022/04/16 01:10:28;;;;;;;4.88;3.80;;;;;;;21.23;36.70;103277.72;5072615;28;20818;-68
2022/04/16 01:13:07;;;;;;;4.38;3.30;;;;;;;21.22;36.94;103278.69;5034133;28;20622;-69
2022/04/16 01:15:33;;;;;;;5.50;3.40;;;;;;;21.15;36.64;103268.72;5058794;28;21876;-68
2022/04/16 01:18:02;;;;;;;4.22;3.38;;;;;;;21.20;36.86;103280.66;5069367;28;20088;-69
2022/04/16 01:20:28;;;;;;;4.80;3.70;;;;;;;21.18;36.89;103279.06;5043419;28;20127;-69
2022/04/16 01:22:54;;;;;;;4.35;3.40;;;;;;;21.18;36.65;103282.56;5070962;28;20044;-69
2022/04/16 01:25:20;;;;;;;4.82;3.20;;;;;;;21.21;36.76;103287.63;5041133;28;20506;-68
2022/04/16 01:27:46;;;;;;;6.22;3.60;;;;;;;21.15;36.68;103282.81;5070295;28;20036;-69
2022/04/16 01:30:23;;;;;;;4.35;3.33;;;;;;;21.17;36.94;103293.28;5026104;28;20048;-68
2022/04/16 01:32:49;;;;;;;4.15;3.40;;;;;;;21.19;36.78;103292.22;5070013;28;20032;-69
2022/04/16 01:35:15;;;;;;;4.53;3.58;;;;;;;21.17;36.73;103294.13;5042755;28;20075;-68
2022/04/16 01:37:41;;;;;;;4.75;3.63;;;;;;;21.18;36.70;103294.97;5066748;28;20032;-69
2022/04/16 01:40:12;;;;;;;4.13;3.17;;;;;;;21.16;36.88;103296.91;5043637;28;20474;-68
2022/04/16 01:42:38;;;;;;;6.03;3.75;;;;;;;21.15;36.90;103287.28;5068467;28;20029;-69
2022/04/16 01:45:11;;;;;;;5.20;3.40;;;;;;;21.13;36.90;103293.56;5037429;28;20138;-69
2022/04/16 01:47:38;;;;;;;4.65;3.28;;;;;;;21.12;36.60;103291.03;5056814;28;20040;-68
2022/04/16 01:50:06;;;;;;;6.00;3.92;;;;;;;21.11;36.78;103292.00;5070644;28;20086;-69
2022/04/16 01:52:32;;;;;;;4.65;3.42;;;;;;;21.12;36.75;103302.47;5040393;28;20040;-68
2022/04/16 01:54:58;;;;;;;4.20;3.10;;;;;;;21.09;36.75;103301.91;5076054;28;20040;-69
2022/04/16 01:57:24;;;;;;;5.10;3.65;;;;;;;21.07;36.76;103306.47;5041390;28;20046;-69
2022/04/16 01:59:50;;;;;;;5.00;3.50;;;;;;;21.12;36.89;103307.78;5068957;28;20052;-69
2022/04/16 02:02:16;;;;;;;4.88;3.70;;;;;;;21.06;37.02;103305.66;5044213;28;20125;-69
2022/04/16 02:04:43;;;;;;;4.63;3.25;;;;;;;21.07;36.75;103306.47;5029669;28;20581;-68
2022/04/16 02:07:08;;;;;;;4.78;3.65;;;;;;;21.07;37.05;103319.72;5068592;28;20040;-68
2022/04/16 02:09:34;;;;;;;4.65;3.38;;;;;;;21.06;37.14;103318.88;5039360;28;20028;-69
2022/04/16 02:12:00;;;;;;;5.28;3.60;;;;;;;21.06;37.00;103324.19;5071579;28;20036;-69
2022/04/16 02:14:25;;;;;;;3.72;2.95;;;;;;;21.05;37.05;103305.78;5037432;28;20133;-68
2022/04/16 02:16:51;;;;;;;3.72;3.28;;;;;;;21.02;36.94;103317.47;5071488;28;20785;-68
2022/04/16 02:19:17;;;;;;;4.63;3.20;;;;;;;21.03;37.00;103321.81;5023229;28;20056;-69
2022/04/16 02:21:43;;;;;;;3.72;3.03;;;;;;;21.02;37.09;103322.78;5065229;28;20063;-69
2022/04/16 02:24:10;;;;;;;3.78;3.30;;;;;;;21.01;37.03;103326.38;5045055;28;20039;-68
2022/04/16 02:26:37;;;;;;;4.13;3.30;;;;;;;20.96;36.90;103320.59;5064910;28;20108;-68
2022/04/16 02:29:04;;;;;;;3.83;3.30;;;;;;;21.02;36.49;103325.41;5039338;28;20942;-68
2022/04/16 02:31:29;;;;;;;4.20;2.72;;;;;;;20.99;36.90;103330.09;5062672;28;20103;-68
2022/04/16 02:33:55;;;;;;;4.18;3.40;;;;;;;20.99;36.89;103323.00;5042789;28;20295;-68
2022/04/16 02:36:25;;;;;;;4.10;3.20;;;;;;;20.98;36.96;103328.44;5056856;28;20037;-68
2022/04/16 02:38:57;;;;;;;4.38;3.17;;;;;;;20.94;36.86;103321.72;5074850;28;20033;-68
2022/04/16 02:41:27;;;;;;;4.10;3.05;;;;;;;20.88;36.85;103316.94;5042492;28;20573;-69
2022/04/16 02:43:54;;;;;;;3.90;3.20;;;;;;;20.98;37.02;103345.16;5068133;28;20150;-68
2022/04/16 02:49:06;;;;;;;3.55;3.10;;;;;;;20.96;36.93;103341.78;5072266;28;20047;-68
2022/04/16 02:51:31;;;;;;;4.78;3.42;;;;;;;20.97;37.04;103340.00;5023893;28;20048;-68
2022/04/16 02:53:57;;;;;;;5.20;3.20;;;;;;;20.93;36.85;103336.75;5072571;28;20048;-69
2022/04/16 02:56:23;;;;;;;4.05;3.20;;;;;;;20.97;36.79;103346.13;5073278;28;20036;-68
2022/04/16 02:58:49;;;;;;;4.90;3.33;;;;;;;20.93;36.98;103352.66;5040521;28;20047;-68
2022/04/16 03:01:15;;;;;;;5.55;3.53;;;;;;;20.92;37.02;103345.69;5067252;28;20044;-68
2022/04/16 03:03:41;;;;;;;4.95;3.58;;;;;;;20.91;37.03;103351.09;5037634;28;20051;-68
2022/04/16 03:06:06;;;;;;;4.40;3.30;;;;;;;20.94;36.75;103356.97;5069702;28;20043;-68
2022/04/16 03:08:32;;;;;;;3.55;3.03;;;;;;;20.74;37.02;103318.91;5025636;28;20069;-68
2022/04/16 03:10:58;;;;;;;3.50;3.05;;;;;;;20.92;36.85;103345.69;5073895;28;20034;-68
2022/04/16 03:13:23;;;;;;;5.18;3.47;;;;;;;20.90;37.14;103349.41;5042178;28;20048;-68
2022/04/16 03:18:33;;;;;;;4.03;3.20;;;;;;;20.90;36.85;103347.63;5037176;28;20122;-68
2022/04/16 03:20:59;;;;;;;4.20;3.30;;;;;;;20.88;36.83;103356.66;5071521;28;20023;-68
2022/04/16 03:23:25;;;;;;;3.58;3.03;;;;;;;20.84;36.92;103344.63;5024409;28;20032;-68
2022/04/16 03:25:53;;;;;;;4.78;3.40;;;;;;;20.89;37.00;103360.97;5066101;28;20494;-68
2022/04/16 03:28:19;;;;;;;3.78;3.10;;;;;;;20.90;36.85;103357.38;5070806;28;20043;-69
2022/04/16 03:30:45;;;;;;;3.55;2.88;;;;;;;20.88;37.01;103364.59;5042500;28;20044;-68
2022/04/16 03:33:11;;;;;;;5.00;3.47;;;;;;;20.86;36.91;103361.25;5069933;28;20063;-68
2022/04/16 03:35:36;;;;;;;4.18;3.40;;;;;;;20.84;37.05;103371.97;5033098;28;20417;-68
2022/04/16 03:38:02;;;;;;;4.22;3.50;;;;;;;20.86;36.84;103379.78;5049418;28;20043;-69
2022/04/16 03:40:28;;;;;;;5.22;3.50;;;;;;;20.87;36.98;103377.00;5012168;28;20043;-68
2022/04/16 03:43:04;;;;;;;3.92;3.22;;;;;;;20.85;36.96;103386.88;5061930;28;20536;-68
2022/04/16 03:45:31;;;;;;;4.47;3.40;;;;;;;20.84;37.05;103381.72;5040229;28;20898;-68
2022/04/16 03:47:57;;;;;;;3.90;3.30;;;;;;;20.84;36.85;103381.72;5071240;28;20103;-68
2022/04/16 03:50:24;;;;;;;3.72;3.30;;;;;;;20.83;37.10;103380.88;5033638;28;20041;-68
2022/04/16 03:52:52;;;;;;;6.32;3.97;;;;;;;20.77;37.10;103371.59;5048707;28;20824;-68
2022/04/16 04:00:50;;;;;;;4.47;3.28;;;;;;;20.66;37.15;103374.28;5041773;28;20569;-68
2022/04/16 04:03:16;;;;;;;5.03;3.67;;;;;;;20.77;37.43;103391.94;5070136;28;20394;-69
2022/04/16 04:05:45;;;;;;;4.85;3.40;;;;;;;20.80;37.04;103403.13;5048906;28;20054;-68
2022/04/16 04:08:11;;;;;;;5.30;3.90;;;;;;;20.77;37.08;103399.88;5042508;28;20048;-68
2022/04/16 04:10:36;;;;;;;6.38;4.03;;;;;;;20.77;36.82;103400.72;5054595;28;20044;-68
2022/04/16 04:13:03;;;;;;;5.13;3.75;;;;;;;20.79;37.00;103401.44;5042033;28;20038;-68
2022/04/16 04:15:31;;;;;;;4.43;3.83;;;;;;;20.76;37.08;103404.34;5067660;28;20139;-68
2022/04/16 04:17:59;;;;;;;4.72;3.67;;;;;;;20.76;37.06;103409.63;5033657;28;20251;-68
2022/04/16 04:20:25;;;;;;;5.45;3.85;;;;;;;20.76;36.94;103411.44;5066072;28;20677;-69
2022/04/16 04:22:50;;;;;;;6.80;3.95;;;;;;;20.76;37.01;103414.09;5034768;28;20052;-69
2022/04/16 04:25:16;;;;;;;4.97;3.95;;;;;;;20.76;36.94;103417.59;5065949;28;20055;-68
2022/04/16 04:27:41;;;;;;;6.05;4.60;;;;;;;20.73;37.20;103420.47;5019754;28;20164;-68
2022/04/16 04:30:08;;;;;;;5.45;4.15;;;;;;;20.72;36.93;103417.97;5069707;28;20056;-69
2022/04/16 04:32:33;;;;;;;5.53;4.25;;;;;;;20.75;36.87;103428.31;5062632;28;20032;-68
2022/04/16 04:34:59;;;;;;;4.82;4.28;;;;;;;20.75;37.08;103436.25;5038404;28;20475;-68
2022/04/16 04:37:24;;;;;;;6.22;4.47;;;;;;;20.77;36.91;103436.97;5063181;28;20037;-68
2022/04/16 04:39:50;;;;;;;6.35;4.72;;;;;;;20.70;36.89;103431.31;5038656;28;20036;-68
2022/04/16 04:42:27;;;;;;;5.80;4.32;;;;;;;20.72;36.93;103432.03;5070480;28;20460;-68
2022/04/16 04:44:53;;;;;;;5.28;3.92;;;;;;;20.77;37.07;103437.81;5020540;28;20811;-68
2022/04/16 04:47:20;;;;;;;6.32;4.38;;;;;;;20.73;37.04;103435.53;5068481;28;20044;-69
2022/04/16 04:49:45;;;;;;;5.70;4.63;;;;;;;20.66;37.01;103424.59;5041033;28;20105;-69
2022/04/16 04:52:19;;;;;;;5.03;4.30;;;;;;;20.71;37.11;103434.81;5064666;28;20036;-69
2022/04/16 04:54:44;;;;;;;5.22;4.50;;;;;;;20.71;37.26;103443.59;5033359;28;20240;-69
2022/04/16 04:57:10;;;;;;;6.32;4.60;;;;;;;20.71;37.31;103445.41;5066500;28;20047;-68
2022/04/16 04:59:35;;;;;;;6.35;4.60;;;;;;;20.67;37.07;103443.97;5042932;28;20036;-68
2022/04/16 05:02:01;;;;;;;5.65;4.15;;;;;;;20.65;37.21;103448.56;5039538;28;20536;-68
2022/04/16 05:04:26;;;;;;;5.20;4.30;;;;;;;20.64;37.25;103454.78;5066627;28;20040;-68
2022/04/16 05:06:52;;;;;;;5.93;4.57;;;;;;;20.61;37.21;103460.31;5019964;28;20037;-68
2022/04/16 05:09:18;;;;;;;5.22;4.15;;;;;;;20.57;37.32;103453.59;5064386;28;20478;-68
2022/04/16 05:11:43;;;;;;;5.95;4.55;;;;;;;20.59;37.32;103462.25;5040840;28;20036;-68
2022/04/16 05:14:09;;;;;;;5.38;4.60;;;;;;;20.58;37.20;103460.56;5063996;28;20044;-68
2022/04/16 05:16:34;;;;;;;5.30;4.60;;;;;;;20.56;37.35;103465.16;5028322;28;20044;-68
2022/04/16 05:19:00;;;;;;;5.13;4.32;;;;;;;20.52;37.40;103467.19;5061903;28;20402;-68
2022/04/16 05:21:25;;;;;;;5.68;4.35;;;;;;;20.53;37.35;103468.88;5062038;28;20025;-68
2022/04/16 05:23:51;;;;;;;6.68;4.90;;;;;;;20.56;37.55;103473.09;5035229;28;20825;-68
2022/04/16 05:26:16;;;;;;;5.47;4.43;;;;;;;20.62;37.37;103480.53;5073604;28;20044;-69
2022/04/16 05:28:42;;;;;;;5.88;4.68;;;;;;;20.83;37.17;103478.88;5038813;28;20037;-68
2022/04/16 05:31:07;;;;;;;6.47;4.82;;;;;;;21.36;36.74;103477.19;5071690;28;20056;-69
2022/04/16 05:36:17;;;;;;;4.22;3.83;;;;;;;22.40;34.91;103486.13;5053883;28;20048;-68
2022/04/16 05:38:44;;;;;;;4.60;4.07;;;;;;;22.69;34.34;103476.47;5039517;28;20136;-68
2022/04/16 05:41:10;;;;;;;4.80;4.07;;;;;;;22.69;34.30;103486.28;5050753;28;20040;-68
2022/04/16 05:43:36;;;;;;;5.85;4.13;;;;;;;22.60;34.64;103491.41;5040090;28;20056;-69
2022/04/16 05:46:02;;;;;;;4.57;3.97;;;;;;;22.54;34.55;103497.25;5069802;28;20110;-69
2022/04/16 05:48:27;;;;;;;5.85;4.30;;;;;;;22.41;34.71;103493.97;5032077;28;20070;-69
2022/04/16 05:50:53;;;;;;;5.65;4.30;;;;;;;22.38;34.86;103490.75;5071558;28;20070;-68
2022/04/16 05:53:21;;;;;;;5.25;4.13;;;;;;;22.27;35.13;103497.00;5071246;28;20028;-68
2022/04/16 05:55:50;;;;;;;6.18;4.38;;;;;;;22.14;35.11;103499.00;5024866;28;20044;-68
2022/04/16 05:58:16;;;;;;;5.18;4.25;;;;;;;21.99;35.57;103507.25;5071802;28;20755;-69
2022/04/16 06:00:42;;;;;;;5.85;4.28;;;;;;;21.87;35.77;103508.28;5038747;28;20185;-69
2022/04/16 06:03:08;;;;;;;4.60;4.00;;;;;;;21.73;36.27;103500.66;5070919;28;20568;-69
2022/04/16 06:05:34;;;;;;;5.50;4.10;;;;;;;21.74;36.34;103506.81;5024336;28;20056;-68
2022/04/16 06:08:00;;;;;;;5.20;4.15;;;;;;;21.73;36.20;103510.44;5067492;28;20044;-69
2022/04/16 06:10:26;;;;;;;5.50;4.45;;;;;;;21.67;36.32;103507.31;5040166;28;20036;-69
2022/04/16 06:12:51;;;;;;;4.85;4.18;;;;;;;21.55;36.66;103508.34;5070701;28;20821;-68
2022/04/16 06:15:17;;;;;;;5.22;4.15;;;;;;;21.52;36.47;103508.56;5043042;28;20089;-68
2022/04/16 06:17:42;;;;;;;4.55;3.80;;;;;;;21.69;36.29;103513.31;5071271;28;20031;-68
2022/04/16 06:20:08;;;;;;;4.82;3.75;;;;;;;22.07;35.65;103503.13;5035874;28;20033;-68
2022/04/16 06:22:35;;;;;;;4.97;4.30;;;;;;;22.55;35.13;103508.72;5058183;28;20146;-68
2022/04/16 06:25:01;;;;;;;4.53;3.83;;;;;;;22.79;34.57;103503.91;5073736;28;20043;-69
2022/04/16 06:27:26;;;;;;;5.45;4.10;;;;;;;22.89;34.38;103504.81;5039119;28;20036;-68
2022/04/16 06:29:52;;;;;;;4.68;3.40;;;;;;;22.95;34.32;103499.94;5065000;28;20028;-69
2022/04/16 06:32:19;;;;;;;5.70;4.03;;;;;;;22.82;34.57;103506.34;5033738;28;20763;-68
2022/04/16 06:34:44;;;;;;;4.40;3.80;;;;;;;22.65;34.78;103500.81;5056072;28;20074;-69
2022/04/16 06:37:10;;;;;;;5.97;4.03;;;;;;;22.52;34.99;103498.38;5027331;28;20051;-68
2022/04/16 06:39:35;;;;;;;5.10;4.10;;;;;;;22.37;35.21;103494.38;5071793;28;20032;-69
2022/04/16 06:42:01;;;;;;;4.75;4.07;;;;;;;22.24;35.40;103497.22;5018915;28;20132;-69
2022/04/16 06:44:26;;;;;;;4.97;3.63;;;;;;;22.19;35.86;103507.41;5067674;28;20036;-69
2022/04/16 06:46:54;;;;;;;4.30;3.70;;;;;;;21.99;36.01;103493.16;5036841;28;20578;-68
2022/04/16 06:49:20;;;;;;;4.68;3.80;;;;;;;21.94;36.07;103503.31;5065796;28;20037;-68
2022/04/16 06:51:46;;;;;;;4.50;3.80;;;;;;;21.89;36.49;103511.66;5030854;28;20052;-68
2022/04/16 06:54:12;;;;;;;6.18;4.20;;;;;;;21.86;36.60;103511.91;5052224;28;20036;-68
2022/04/16 06:56:38;;;;;;;4.35;3.45;;;;;;;21.83;36.38;103516.63;5054482;28;20048;-69
2022/04/16 06:59:03;;;;;;;5.10;4.03;;;;;;;21.81;36.66;103518.59;5039610;28;20040;-69
2022/04/16 07:01:29;;;;;;;5.80;4.10;;;;;;;21.80;36.77;103525.69;5052962;28;20626;-68
2022/04/16 07:03:54;;;;;;;5.45;3.85;;;;;;;21.80;36.51;103527.50;5046030;28;20047;-69
2022/04/16 07:06:20;;;;;;;5.65;4.18;;;;;;;21.70;36.98;103528.25;5068137;28;20100;-68
2022/04/16 07:08:45;;;;;;;4.80;3.58;;;;;;;21.74;36.81;103533.34;5043880;28;20402;-68
2022/04/16 07:11:11;;;;;;;4.15;3.47;;;;;;;21.73;37.07;103542.25;5056380;28;20055;-69
2022/04/16 07:13:36;;;;;;;4.57;3.83;;;;;;;21.70;37.12;103538.03;5067280;28;20032;-68
2022/04/16 07:16:02;;;;;;;5.10;4.05;;;;;;;21.66;37.04;103537.44;5024464;28;20048;-68
2022/04/16 07:18:27;;;;;;;5.72;3.80;;;;;;;21.53;37.21;103526.16;5068371;28;20067;-68
2022/04/16 07:20:53;;;;;;;5.07;3.78;;;;;;;21.65;37.14;103551.66;5038617;28;20032;-68
2022/04/16 07:23:18;;;;;;;4.35;3.72;;;;;;;21.64;37.07;103547.34;5067108;28;20036;-68
2022/04/16 07:25:44;;;;;;;4.15;3.47;;;;;;;21.61;37.18;103547.59;5040357;28;20036;-68
2022/04/16 07:28:11;;;;;;;5.65;4.25;;;;;;;21.60;37.09;103550.38;5044408;28;20028;-68
2022/04/16 07:30:36;;;;;;;5.22;3.70;;;;;;;21.61;37.74;103552.91;5077164;28;20044;-68
2022/04/16 07:33:02;;;;;;;5.10;3.63;;;;;;;21.61;37.40;103554.72;5022919;28;20036;-68
2022/04/16 07:35:28;;;;;;;5.55;3.90;;;;;;;21.59;37.63;103549.53;5074636;28;20713;-68
2022/04/16 07:37:57;;;;;;;4.75;3.55;;;;;;;21.62;37.51;103554.59;5042132;28;20129;-68
2022/04/16 07:40:25;;;;;;;4.95;3.78;;;;;;;21.61;37.51;103552.06;5081643;28;20047;-68
2022/04/16 07:42:52;;;;;;;5.50;3.50;;;;;;;21.65;37.49;103556.13;5037234;28;20059;-68
2022/04/16 07:45:17;;;;;;;5.07;3.90;;;;;;;21.63;37.29;103558.91;5064604;28;20039;-68
2022/04/16 07:47:43;;;;;;;4.47;3.75;;;;;;;21.66;37.19;103556.00;5054115;28;20389;-68
2022/04/16 07:50:09;;;;;;;5.45;3.83;;;;;;;21.66;37.30;103569.25;5049219;28;20041;-68
2022/04/16 07:52:35;;;;;;;4.75;3.72;;;;;;;21.62;37.39;103575.78;5061076;28;20036;-69
2022/04/16 07:55:00;;;;;;;5.03;3.53;;;;;;;21.65;37.06;103572.03;5057349;28;20174;-69
2022/04/16 07:57:26;;;;;;;4.90;3.35;;;;;;;21.73;37.16;103571.44;5072571;28;20089;-68
2022/04/16 07:59:53;;;;;;;5.10;3.60;;;;;;;21.93;36.65;103574.13;5027936;28;20541;-68
2022/04/16 08:02:19;;;;;;;5.20;3.90;;;;;;;22.47;36.16;103575.78;5073726;28;20043;-68
2022/04/16 08:04:45;;;;;;;4.40;3.60;;;;;;;22.60;35.95;103575.53;5042871;28;20089;-68
2022/04/16 08:07:10;;;;;;;5.63;3.53;;;;;;;22.54;35.85;103578.72;5054332;28;20051;-68
2022/04/16 08:09:36;;;;;;;4.38;3.42;;;;;;;22.43;35.98;103566.38;5049920;28;20043;-68
2022/04/16 08:12:01;;;;;;;5.25;3.67;;;;;;;22.39;36.38;103569.41;5067877;28;20032;-68
2022/04/16 08:14:27;;;;;;;4.10;3.40;;;;;;;22.31;36.27;103562.97;5031127;28;20371;-68
2022/04/16 08:16:52;;;;;;;4.47;3.45;;;;;;;22.23;36.14;103576.03;5068356;28;20122;-68
2022/04/16 08:19:18;;;;;;;6.00;3.55;;;;;;;22.05;36.19;103553.69;5074349;28;20033;-69
2022/04/16 08:21:44;;;;;;;4.18;3.25;;;;;;;22.08;36.91;103569.34;5041756;28;20539;-69
2022/04/16 08:24:13;;;;;;;4.13;3.05;;;;;;;22.02;36.56;103569.84;5065846;28;20115;-69
2022/04/16 08:26:42;;;;;;;4.50;2.97;;;;;;;22.04;36.94;103570.56;5021630;28;20125;-70
2022/04/16 08:29:08;;;;;;;3.55;2.78;;;;;;;22.03;36.58;103574.19;5066268;28;20031;-70
2022/04/16 08:31:34;;;;;;;4.18;3.17;;;;;;;22.06;36.55;103575.75;5030166;28;20052;-70
2022/04/16 08:33:59;;;;;;;3.65;2.83;;;;;;;22.01;36.84;103576.13;5077677;28;20393;-70
2022/04/16 08:36:25;;;;;;;4.20;3.30;;;;;;;21.98;37.02;103577.22;5070515;28;20039;-70
2022/04/16 08:38:51;;;;;;;3.42;2.50;;;;;;;22.02;36.93;103575.16;5048888;28;20167;-70
2022/04/16 08:41:16;;;;;;;3.97;2.85;;;;;;;21.95;36.83;103574.00;5073531;28;20044;-70
2022/04/16 08:43:42;;;;;;;3.95;2.90;;;;;;;21.95;36.97;103566.88;5029965;28;20044;-70
2022/04/16 08:46:08;;;;;;;3.95;2.88;;;;;;;21.90;36.79;103566.41;5074722;28;20042;-70
2022/04/16 08:48:35;;;;;;;3.92;2.60;;;;;;;21.92;36.85;103577.75;5010466;28;20048;-70
2022/04/16 08:51:01;;;;;;;3.97;2.90;;;;;;;21.83;36.79;103551.97;5074353;28;20079;-69
2022/04/16 08:53:27;;;;;;;4.32;2.90;;;;;;;21.94;36.51;103565.19;5030801;28;20032;-71
2022/04/16 08:55:53;;;;;;;3.50;2.92;;;;;;;21.91;36.77;103568.09;5071933;28;20035;-71
2022/04/16 08:58:18;;;;;;;3.78;2.60;;;;;;;21.90;36.93;103557.59;5045040;28;20037;-72
2022/04/16 09:00:44;;;;;;;3.38;2.63;;;;;;;21.95;36.70;103556.25;5067704;28;20059;-72
2022/04/16 09:03:10;;;;;;;3.63;2.70;;;;;;;21.94;36.97;103557.22;5047995;28;20759;-72
2022/04/16 09:05:36;;;;;;;3.45;2.67;;;;;;;21.96;36.92;103549.13;5068997;28;20066;-72
2022/04/16 09:08:04;;;;;;;3.45;2.85;;;;;;;21.93;36.83;103544.94;5075909;28;20761;-72
2022/04/16 09:10:36;;;;;;;4.05;2.42;;;;;;;21.93;36.86;103544.09;5054547;28;20032;-72
2022/04/16 09:13:03;;;;;;;3.70;3.10;;;;;;;21.98;36.49;103555.16;5075673;28;20048;-72
2022/04/16 09:15:30;;;;;;;3.05;2.33;;;;;;;21.97;36.68;103551.66;5027673;28;20036;-71
2022/04/16 09:18:08;;;;;;;4.63;2.90;;;;;;;21.97;36.39;103556.13;5078109;28;20028;-71
2022/04/16 09:20:39;;;;;;;8.23;2.90;;;;;;;21.98;36.63;103550.69;5032449;28;20429;-72
2022/04/16 09:23:16;;;;;;;3.05;2.50;;;;;;;21.99;36.48;103556.84;5075605;28;20032;-72
2022/04/16 09:25:43;;;;;;;3.28;2.47;;;;;;;22.01;36.29;103552.25;5042943;28;20040;-72
2022/04/16 09:28:08;;;;;;;3.38;2.50;;;;;;;21.96;36.51;103543.84;5074306;28;20028;-72
2022/04/16 09:30:34;;;;;;;3.60;3.00;;;;;;;21.99;36.46;103547.06;5036154;28;20480;-73
2022/04/16 09:33:00;;;;;;;3.38;2.83;;;;;;;22.01;36.42;103541.63;5062632;28;20567;-72
2022/04/16 09:35:28;;;;;;;2.95;2.60;;;;;;;21.98;36.22;103541.88;5035440;28;20047;-72
2022/04/16 09:37:58;;;;;;;4.45;2.72;;;;;;;21.96;36.39;103535.88;5076108;28;20849;-72
2022/04/16 09:40:25;;;;;;;3.60;2.60;;;;;;;22.03;36.16;103545.81;5083063;28;20508;-72
2022/04/16 09:42:52;;;;;;;3.90;2.40;;;;;;;22.29;36.08;103535.72;5048396;28;20044;-72
2022/04/16 09:45:18;;;;;;;2.80;2.30;;;;;;;22.36;35.97;103537.81;5072903;28;20677;-73
2022/04/16 09:47:50;;;;;;;3.53;2.42;;;;;;;22.25;35.63;103517.50;5047506;28;20047;-72
2022/04/16 09:50:22;;;;;;;2.80;2.47;;;;;;;22.29;35.77;103541.00;5083366;28;20056;-72
2022/04/16 09:52:55;;;;;;;3.83;2.70;;;;;;;22.22;35.90;103542.50;5025831;28;20036;-71
2022/04/16 09:55:23;;;;;;;4.00;2.60;;;;;;;22.18;35.65;103542.88;5073749;28;20072;-70
2022/04/16 09:57:51;;;;;;;4.05;2.67;;;;;;;22.12;35.86;103528.34;5037261;28;20028;-70
2022/04/16 10:00:18;;;;;;;2.90;2.20;;;;;;;22.15;35.82;103538.69;5077267;28;20036;-72
2022/04/16 10:02:44;;;;;;;3.78;2.10;;;;;;;22.15;35.91;103535.19;5052199;28;20097;-72
2022/04/16 10:05:10;;;;;;;2.65;2.17;;;;;;;22.08;35.81;103534.84;5070870;28;20044;-71
2022/04/16 10:07:37;;;;;;;2.40;2.17;;;;;;;22.06;35.68;103534.13;5030887;28;20032;-72
2022/04/16 10:10:06;;;;;;;3.42;2.17;;;;;;;22.05;35.87;103535.13;5081804;28;20092;-71
2022/04/16 10:15:22;;;;;;;4.03;2.08;;;;;;;22.03;35.68;103535.22;5074533;28;20568;-71
2022/04/16 10:17:51;;;;;;;3.67;2.20;;;;;;;22.02;36.04;103540.66;5029596;28;20032;-71
2022/04/16 10:20:19;;;;;;;2.55;1.83;;;;;;;22.05;36.11;103547.53;5075140;28;20830;-71
2022/04/16 10:23:03;;;;;;;2.88;2.10;;;;;;;22.07;35.82;103543.78;5055326;28;20039;-71
2022/04/16 10:25:40;;;;;;;2.20;2.00;;;;;;;22.07;35.57;103541.13;5068213;28;20521;-70
2022/04/16 10:28:07;;;;;;;2.22;2.00;;;;;;;22.07;35.66;103537.63;5073521;28;20119;-70
2022/04/16 10:30:36;;;;;;;3.13;2.10;;;;;;;22.06;35.81;103541.25;5052887;28;20051;-70
2022/04/16 10:33:15;;;;;;;2.47;2.08;;;;;;;22.06;35.51;103541.25;5073987;28;20036;-70
2022/04/16 10:36:09;;;;;;;2.90;2.28;;;;;;;22.05;35.50;103544.88;5043474;28;20028;-70
2022/04/16 10:38:43;;;;;;;2.10;1.77;;;;;;;22.05;35.43;103543.06;5066051;28;20027;-70
2022/04/16 10:41:35;;;;;;;2.35;2.03;;;;;;;22.03;35.28;103535.22;5055807;28;20122;-70
2022/04/16 10:44:01;;;;;;;2.33;1.88;;;;;;;22.01;35.58;103541.63;5055579;28;20107;-70
2022/04/16 10:46:46;;;;;;;2.45;2.10;;;;;;;21.99;35.75;103535.59;5050345;28;20048;-70
2022/04/16 10:49:13;;;;;;;2.33;1.90;;;;;;;21.98;35.48;103541.88;5081822;28;20035;-70
2022/04/16 10:51:39;;;;;;;2.33;1.95;;;;;;;21.97;35.80;103549.00;5044561;28;20039;-70
2022/04/16 10:54:15;;;;;;;2.28;2.05;;;;;;;21.90;35.79;103550.50;5068373;28;20048;-69
2022/04/16 10:56:51;;;;;;;2.30;2.00;;;;;;;21.93;35.59;103552.06;5030993;28;20032;-70
2022/04/16 10:59:16;;;;;;;4.78;2.05;;;;;;;21.92;35.45;103545.91;5078199;28;20121;-70
2022/04/16 11:01:52;;;;;;;1.67;1.55;;;;;;;21.91;35.28;103544.22;5040544;28;20055;-70
2022/04/16 11:04:18;;;;;;;2.35;1.85;;;;;;;21.93;35.58;103542.28;5080025;28;20036;-70
2022/04/16 11:06:51;;;;;;;2.10;1.67;;;;;;;21.93;35.30;103539.63;5040408;28;20066;-70
2022/04/16 11:09:20;;;;;;;2.35;1.70;;;;;;;21.88;35.30;103533.84;5069254;28;20028;-72
2022/04/16 11:11:52;;;;;;;1.77;1.67;;;;;;;21.90;35.13;103531.94;5031587;28;20036;-71
2022/04/16 11:14:18;;;;;;;2.58;2.05;;;;;;;21.94;35.38;103533.34;5071720;28;20051;-71
2022/04/16 11:16:46;;;;;;;2.00;1.80;;;;;;;21.93;35.54;103529.00;5045925;28;20402;-71
2022/04/16 11:19:13;;;;;;;1.70;1.60;;;;;;;22.00;35.32;103532.81;5064455;28;20116;-71
2022/04/16 11:21:39;;;;;;;2.08;1.88;;;;;;;22.00;35.49;103530.16;5040608;28;20032;-71
2022/04/16 11:24:06;;;;;;;1.60;1.50;;;;;;;22.01;35.17;103534.50;5059728;28;20538;-72
2022/04/16 11:34:55;;;;;;;2.67;1.58;;;;;;;22.06;35.36;103525.34;5042370;28;20224;-72
2022/04/16 11:37:21;;;;;;;1.98;1.70;;;;;;;22.05;35.49;103515.69;5076702;28;20043;-71
2022/04/16 11:39:57;;;;;;;1.88;1.60;;;;;;;22.23;35.27;103524.75;5042486;28;20044;-71
2022/04/16 11:42:24;;;;;;;1.92;1.50;;;;;;;22.35;34.81;103523.72;5077039;28;20054;-73
2022/04/16 11:44:52;;;;;;;2.17;1.33;;;;;;;22.30;34.93;103523.28;5029910;28;20039;-72
2022/04/16 11:47:22;;;;;;;1.58;1.40;;;;;;;22.24;35.04;103527.28;5079083;28;20097;-72
2022/04/16 11:50:01;;;;;;;1.98;1.58;;;;;;;22.16;34.73;103508.53;5039558;28;20023;-72